Cheboksary, Russia
Current Conditions -  °F | °C
As of 4:30 AM on Saturday 25 Oct 2014 (Local Time) from UWKS Reporting Station
Overcast Overcast  
Wind Chill:   Ceiling: 2000
Heat Index: 18°   Visibility: 6mi
Dew Point: 12°   Wind: 13mph
Humidity: 79%   Direction: 330°NNW
Pressure: 30.36"   Gusts: NA
Location:  56.13°N, 47.25°E
Report Text: UWKS 250130Z 33006MPS 9999 OVC020CB M08/M11 Q1028 NOSIG RMKQFE756 06820250
Loading
Personal Weather Stations






























Interactive Weather Map
Tropical Storm Tracking
New forecast layout! Learn more

10-Day Weather Forecast

Advertisements
Track Severe Weather on mobile